Time;durP1;ratioP1;P1;durP2;ratioP2;P2;SDS_P1;SDS_P2;PMS_P1;PMS_P2;Temp;Humidity;BMP_temperature;BMP_pressure;BME280_temperature;BME280_humidity;BME280_pressure;Samples;Min_cycle;Max_cycle;Signal;HPM_P1;HPM_P2
2022/09/04 00:01:01;;;;;;;1.25;1.08;;;;;;;;;;4489019;28;20035;-72
2022/09/04 00:03:34;;;;;;;1.38;1.10;;;;;;;;;;4488636;28;20689;-69
2022/09/04 00:05:51;;;;;;;1.20;1.10;;;;;;;;;;4488007;28;20124;-71
2022/09/04 00:08:04;;;;;;;1.17;1.08;;;;;;;;;;4487626;28;20117;-71
2022/09/04 00:10:31;;;;;;;1.20;1.10;;;;;;;;;;4486877;28;20046;-71
2022/09/04 00:12:50;;;;;;;1.20;1.10;;;;;;;;;;4486458;28;20042;-72
2022/09/04 00:15:13;;;;;;;1.00;0.90;;;;;;;;;;4487368;28;20041;-71
2022/09/04 00:17:30;;;;;;;1.30;1.00;;;;;;;;;;4475503;28;20038;-71
2022/09/04 00:19:58;;;;;;;1.00;0.90;;;;;;;;;;4485018;28;20147;-72
2022/09/04 00:22:38;;;;;;;1.20;1.10;;;;;;;;;;4488017;28;20038;-72
2022/09/04 00:25:00;;;;;;;1.45;1.00;;;;;;;;;;4470228;28;20053;-71
2022/09/04 00:27:16;;;;;;;1.10;0.90;;;;;;;;;;4488138;28;20037;-72
2022/09/04 00:29:36;;;;;;;1.48;1.10;;;;;;;;;;4474742;28;20047;-72
2022/09/04 00:31:57;;;;;;;1.25;1.10;;;;;;;;;;4484337;28;20890;-72
2022/09/04 00:34:14;;;;;;;1.42;1.10;;;;;;;;;;4485702;28;20030;-71
2022/09/04 00:36:26;;;;;;;1.58;1.10;;;;;;;;;;4489522;28;21266;-72
2022/09/04 00:38:42;;;;;;;1.23;1.02;;;;;;;;;;4487072;28;20035;-72
2022/09/04 00:41:12;;;;;;;1.97;1.20;;;;;;;;;;4486784;28;20074;-72
2022/09/04 00:43:28;;;;;;;1.10;1.00;;;;;;;;;;4488358;28;20517;-72
2022/09/04 00:46:05;;;;;;;1.20;1.02;;;;;;;;;;4485386;28;20042;-72
2022/09/04 00:48:29;;;;;;;1.55;1.25;;;;;;;;;;4466626;28;20054;-72
2022/09/04 00:50:42;;;;;;;1.10;1.00;;;;;;;;;;4486636;28;20177;-72
2022/09/04 00:53:22;;;;;;;1.30;1.10;;;;;;;;;;4486659;28;20643;-72
2022/09/04 00:55:43;;;;;;;1.50;1.00;;;;;;;;;;4490061;28;20093;-72
2022/09/04 00:58:03;;;;;;;1.38;1.00;;;;;;;;;;4487315;28;20042;-72
2022/09/04 01:00:15;;;;;;;1.52;1.20;;;;;;;;;;4488157;28;20038;-72
2022/09/04 01:02:52;;;;;;;1.30;1.20;;;;;;;;;;4473360;28;20051;-72
2022/09/04 01:05:36;;;;;;;1.13;1.02;;;;;;;;;;4486977;28;20614;-72
2022/09/04 01:07:52;;;;;;;1.17;1.08;;;;;;;;;;4486162;28;20650;-72
2022/09/04 01:10:07;;;;;;;0.85;0.80;;;;;;;;;;4485807;28;20125;-73
2022/09/04 01:12:31;;;;;;;1.33;0.90;;;;;;;;;;4486238;28;20084;-73
2022/09/04 01:14:51;;;;;;;1.00;1.00;;;;;;;;;;4489747;28;20298;-72
2022/09/04 01:17:26;;;;;;;1.40;1.00;;;;;;;;;;4490130;28;20037;-72
2022/09/04 01:19:51;;;;;;;1.40;1.00;;;;;;;;;;4491018;28;20037;-72
2022/09/04 01:22:17;;;;;;;1.10;1.00;;;;;;;;;;4483394;28;20912;-73
2022/09/04 01:25:16;;;;;;;1.13;1.00;;;;;;;;;;4484035;28;20030;-71
2022/09/04 01:27:29;;;;;;;;;;;;;;;;;;4464665;28;20078;-73
2022/09/04 01:29:55;;;;;;;1.10;1.00;;;;;;;;;;4484864;28;19950;-72
2022/09/04 01:32:18;;;;;;;1.55;1.00;;;;;;;;;;4486870;28;20039;-72
2022/09/04 01:34:49;;;;;;;1.20;1.10;;;;;;;;;;4484826;28;20104;-72
2022/09/04 01:37:24;;;;;;;1.20;1.10;;;;;;;;;;4487650;28;20153;-73
2022/09/04 01:39:35;;;;;;;1.10;1.00;;;;;;;;;;4485103;28;20288;-72
2022/09/04 01:41:55;;;;;;;1.00;0.90;;;;;;;;;;4484734;28;20050;-72
2022/09/04 01:44:08;;;;;;;1.17;1.05;;;;;;;;;;4489689;28;20039;-73
2022/09/04 01:46:40;;;;;;;1.90;1.00;;;;;;;;;;4488621;28;20042;-72
2022/09/04 01:49:09;;;;;;;1.25;1.10;;;;;;;;;;4486165;28;20034;-73
2022/09/04 01:51:44;;;;;;;1.27;1.10;;;;;;;;;;4487443;28;20567;-73
2022/09/04 01:54:19;;;;;;;1.25;1.15;;;;;;;;;;4487791;28;21065;-73
2022/09/04 01:56:35;;;;;;;1.10;1.00;;;;;;;;;;4485662;28;20038;-73
2022/09/04 01:58:55;;;;;;;1.45;1.10;;;;;;;;;;4485624;28;20589;-73
2022/09/04 02:01:42;;;;;;;1.80;1.10;;;;;;;;;;4487053;28;20124;-73
2022/09/04 02:04:11;;;;;;;1.10;1.00;;;;;;;;;;4485398;28;20575;-73
2022/09/04 02:06:43;;;;;;;1.05;0.95;;;;;;;;;;4485845;28;20637;-73
2022/09/04 02:09:36;;;;;;;1.17;1.08;;;;;;;;;;4483548;28;20038;-73
2022/09/04 02:11:57;;;;;;;1.30;1.08;;;;;;;;;;4452475;28;20053;-73
2022/09/04 02:14:35;;;;;;;1.55;1.27;;;;;;;;;;4486123;28;20105;-73
2022/09/04 02:17:06;;;;;;;1.05;0.95;;;;;;;;;;4484496;28;20042;-73
2022/09/04 02:19:28;;;;;;;2.08;1.10;;;;;;;;;;4487013;28;20042;-73
2022/09/04 02:21:55;;;;;;;1.63;0.90;;;;;;;;;;4485992;28;20045;-73
2022/09/04 02:24:40;;;;;;;1.48;1.10;;;;;;;;;;4486104;28;20034;-72
2022/09/04 02:27:02;;;;;;;1.20;1.10;;;;;;;;;;4487476;28;20066;-73
2022/09/04 02:29:15;;;;;;;1.08;0.90;;;;;;;;;;4483624;28;20047;-73
2022/09/04 02:31:51;;;;;;;1.73;0.90;;;;;;;;;;4485585;28;20044;-72
2022/09/04 02:34:30;;;;;;;1.10;1.00;;;;;;;;;;4485258;28;20139;-72
2022/09/04 02:36:49;;;;;;;0.95;0.82;;;;;;;;;;4486571;28;20042;-70
2022/09/04 02:39:28;;;;;;;1.10;1.00;;;;;;;;;;4490935;28;20044;-72
2022/09/04 02:41:52;;;;;;;1.23;1.00;;;;;;;;;;4488776;28;20046;-73
2022/09/04 02:44:29;;;;;;;1.10;1.00;;;;;;;;;;4485296;28;20038;-72
2022/09/04 02:46:59;;;;;;;1.33;1.00;;;;;;;;;;4474111;28;20753;-72
2022/09/04 02:49:35;;;;;;;1.30;1.17;;;;;;;;;;4484747;28;20090;-72
2022/09/04 02:51:49;;;;;;;1.20;1.10;;;;;;;;;;4473735;28;20555;-73
2022/09/04 02:54:29;;;;;;;1.10;1.00;;;;;;;;;;4485717;28;20053;-72
2022/09/04 02:56:58;;;;;;;1.10;1.00;;;;;;;;;;4484601;28;20117;-72
2022/09/04 02:59:34;;;;;;;1.15;1.00;;;;;;;;;;4483487;28;20839;-73
2022/09/04 03:01:52;;;;;;;1.45;1.00;;;;;;;;;;4478925;28;20615;-72
2022/09/04 03:04:11;;;;;;;1.05;0.95;;;;;;;;;;4483242;28;20149;-72
2022/09/04 03:06:48;;;;;;;1.20;1.10;;;;;;;;;;4485537;28;21612;-72
2022/09/04 03:09:04;;;;;;;1.10;1.00;;;;;;;;;;4486226;28;20046;-72
2022/09/04 03:11:34;;;;;;;1.05;0.98;;;;;;;;;;4485523;28;20072;-73
2022/09/04 03:13:56;;;;;;;0.90;0.80;;;;;;;;;;4484105;28;20030;-73
2022/09/04 03:16:32;;;;;;;1.27;1.00;;;;;;;;;;4483474;28;20066;-73
2022/09/04 03:19:06;;;;;;;1.23;1.00;;;;;;;;;;4489357;28;21381;-73
2022/09/04 03:21:26;;;;;;;1.08;0.90;;;;;;;;;;4486037;28;20042;-73
2022/09/04 03:24:03;;;;;;;1.02;1.00;;;;;;;;;;4485308;28;20025;-73
2022/09/04 03:26:22;;;;;;;1.13;1.02;;;;;;;;;;4486830;28;20165;-73
2022/09/04 03:28:58;;;;;;;1.20;1.10;;;;;;;;;;4486510;28;20081;-73
2022/09/04 03:31:32;;;;;;;1.17;1.08;;;;;;;;;;4490324;28;20042;-73
2022/09/04 03:33:48;;;;;;;1.27;1.10;;;;;;;;;;4488625;28;20080;-72
2022/09/04 03:36:07;;;;;;;1.15;1.05;;;;;;;;;;4492891;28;20665;-70
2022/09/04 03:38:27;;;;;;;1.27;1.13;;;;;;;;;;4488033;28;20534;-73
2022/09/04 03:40:44;;;;;;;1.35;1.02;;;;;;;;;;4485490;28;20034;-72
2022/09/04 03:43:10;;;;;;;1.08;0.95;;;;;;;;;;4488445;28;20043;-72
2022/09/04 03:45:35;;;;;;;1.27;1.00;;;;;;;;;;4489388;28;20030;-73
2022/09/04 03:47:54;;;;;;;1.10;1.00;;;;;;;;;;4486557;28;20742;-72
2022/09/04 03:50:18;;;;;;;0.90;0.90;;;;;;;;;;4488005;28;20232;-72
2022/09/04 03:52:48;;;;;;;1.35;0.98;;;;;;;;;;4489203;28;20037;-73
2022/09/04 03:55:23;;;;;;;1.00;0.90;;;;;;;;;;4487664;28;20043;-73
2022/09/04 03:58:01;;;;;;;1.83;1.13;;;;;;;;;;4485566;28;20036;-72
2022/09/04 04:00:18;;;;;;;1.10;1.00;;;;;;;;;;4487872;28;20053;-72
2022/09/04 04:02:40;;;;;;;1.13;1.02;;;;;;;;;;4490973;28;20044;-72
2022/09/04 04:05:18;;;;;;;1.42;1.00;;;;;;;;;;4488245;28;20069;-72
2022/09/04 04:08:08;;;;;;;1.20;1.10;;;;;;;;;;4488464;28;20034;-72
2022/09/04 04:11:06;;;;;;;1.02;0.93;;;;;;;;;;4489009;28;20704;-71
2022/09/04 04:13:25;;;;;;;1.10;1.00;;;;;;;;;;4484945;28;21619;-72
2022/09/04 04:15:50;;;;;;;1.10;0.90;;;;;;;;;;4487368;28;20050;-72
2022/09/04 04:18:19;;;;;;;1.10;1.00;;;;;;;;;;4488830;28;20736;-72
2022/09/04 04:20:53;;;;;;;0.95;0.90;;;;;;;;;;4485202;28;20073;-72
2022/09/04 04:23:35;;;;;;;1.38;1.00;;;;;;;;;;4469804;28;20055;-71
2022/09/04 04:26:23;;;;;;;0.90;0.90;;;;;;;;;;4487778;28;20045;-72
2022/09/04 04:29:07;;;;;;;1.20;1.10;;;;;;;;;;4486099;28;20134;-72
2022/09/04 04:32:09;;;;;;;2.15;1.10;;;;;;;;;;4487904;28;20274;-72
2022/09/04 04:34:32;;;;;;;1.13;1.00;;;;;;;;;;4502374;28;20041;-71
2022/09/04 04:37:01;;;;;;;1.17;1.08;;;;;;;;;;4488536;28;20371;-71
2022/09/04 04:39:27;;;;;;;1.20;1.10;;;;;;;;;;4485764;28;20052;-70
2022/09/04 04:42:04;;;;;;;1.20;1.10;;;;;;;;;;4486897;28;20866;-72
2022/09/04 04:44:16;;;;;;;2.30;1.10;;;;;;;;;;4488011;28;20038;-71
2022/09/04 04:47:06;;;;;;;1.30;1.10;;;;;;;;;;4488776;28;20027;-72
2022/09/04 04:49:47;;;;;;;1.25;1.10;;;;;;;;;;4486179;28;20044;-72
2022/09/04 04:52:19;;;;;;;1.00;1.00;;;;;;;;;;4487250;28;20043;-71
2022/09/04 04:54:50;;;;;;;1.20;1.10;;;;;;;;;;4486553;28;20042;-72
2022/09/04 04:57:16;;;;;;;1.30;1.00;;;;;;;;;;4484538;28;20100;-72
2022/09/04 04:59:54;;;;;;;2.43;0.90;;;;;;;;;;4486959;28;20619;-72
2022/09/04 05:02:39;;;;;;;1.17;1.08;;;;;;;;;;4485681;28;20273;-72
2022/09/04 05:05:02;;;;;;;1.38;1.02;;;;;;;;;;4484242;28;20524;-72
2022/09/04 05:07:36;;;;;;;1.17;1.08;;;;;;;;;;4486013;28;20615;-72
2022/09/04 05:10:05;;;;;;;1.30;1.20;;;;;;;;;;4486047;28;20042;-72
2022/09/04 05:12:30;;;;;;;1.20;1.10;;;;;;;;;;4484547;28;20046;-72
2022/09/04 05:15:05;;;;;;;1.42;1.00;;;;;;;;;;4486002;28;20034;-72
2022/09/04 05:17:34;;;;;;;1.00;1.00;;;;;;;;;;4482731;28;20623;-72
2022/09/04 05:20:11;;;;;;;1.58;1.10;;;;;;;;;;4485385;28;20129;-72
2022/09/04 05:22:30;;;;;;;1.20;1.10;;;;;;;;;;4488271;28;20129;-72
2022/09/04 05:25:13;;;;;;;1.17;1.08;;;;;;;;;;4487489;28;21047;-72
2022/09/04 05:27:45;;;;;;;1.05;0.90;;;;;;;;;;4485497;28;20041;-71
2022/09/04 05:30:09;;;;;;;1.40;1.10;;;;;;;;;;4486946;28;21312;-71
2022/09/04 05:32:45;;;;;;;1.20;1.00;;;;;;;;;;4486104;28;20023;-72
2022/09/04 05:35:17;;;;;;;1.30;1.00;;;;;;;;;;4485928;28;20044;-72
2022/09/04 05:37:41;;;;;;;1.40;1.10;;;;;;;;;;4486475;28;20038;-71
2022/09/04 05:40:06;;;;;;;2.17;1.30;;;;;;;;;;4486414;28;20141;-72
2022/09/04 05:42:41;;;;;;;2.05;1.38;;;;;;;;;;4468028;28;20066;-71
2022/09/04 05:45:16;;;;;;;1.30;1.10;;;;;;;;;;4487062;28;20038;-72
2022/09/04 05:47:37;;;;;;;1.23;1.13;;;;;;;;;;4485702;28;20092;-71
2022/09/04 05:49:58;;;;;;;1.30;1.08;;;;;;;;;;4486981;28;20029;-70
2022/09/04 05:52:47;;;;;;;1.20;1.10;;;;;;;;;;4487704;28;20039;-70
2022/09/04 05:54:57;;;;;;;;;;;;;;;;;;4435887;28;20048;-70
2022/09/04 05:57:28;;;;;;;0.80;0.80;;;;;;;;;;4485471;28;19917;-71
2022/09/04 05:59:38;;;;;;;1.27;1.00;;;;;;;;;;4483991;28;20792;-71
2022/09/04 06:02:03;;;;;;;1.00;0.90;;;;;;;;;;4486545;28;20026;-71
2022/09/04 06:04:54;;;;;;;1.08;0.95;;;;;;;;;;4488622;28;20038;-70
2022/09/04 06:07:20;;;;;;;1.00;0.90;;;;;;;;;;4487575;28;20049;-71
2022/09/04 06:09:37;;;;;;;1.10;1.00;;;;;;;;;;4487116;28;21068;-71
2022/09/04 06:12:09;;;;;;;1.13;1.02;;;;;;;;;;4484262;28;20630;-71
2022/09/04 06:14:37;;;;;;;1.10;1.00;;;;;;;;;;4488130;28;20108;-71
2022/09/04 06:17:06;;;;;;;1.10;1.00;;;;;;;;;;4487441;28;20038;-71
2022/09/04 06:19:19;;;;;;;1.05;0.90;;;;;;;;;;4484510;28;20588;-72
2022/09/04 06:21:43;;;;;;;1.00;0.90;;;;;;;;;;4485656;28;20031;-72
2022/09/04 06:24:15;;;;;;;1.00;0.90;;;;;;;;;;4485863;28;20117;-72
2022/09/04 06:26:37;;;;;;;1.10;1.00;;;;;;;;;;4484902;28;20103;-71
2022/09/04 06:29:01;;;;;;;1.15;1.05;;;;;;;;;;4485625;28;20038;-70
2022/09/04 06:31:14;;;;;;;1.15;1.00;;;;;;;;;;4486334;28;20039;-71
2022/09/04 06:33:38;;;;;;;1.02;0.93;;;;;;;;;;4499246;28;20068;-72
2022/09/04 06:36:13;;;;;;;1.02;0.93;;;;;;;;;;4486351;28;20030;-72
2022/09/04 06:38:39;;;;;;;1.90;1.10;;;;;;;;;;4470284;28;20750;-71
2022/09/04 06:41:15;;;;;;;1.23;1.02;;;;;;;;;;4484958;28;20038;-72
2022/09/04 06:43:43;;;;;;;1.15;1.05;;;;;;;;;;4486114;28;20062;-72
2022/09/04 06:46:37;;;;;;;1.25;1.00;;;;;;;;;;4486056;28;20587;-72
2022/09/04 06:49:17;;;;;;;1.15;0.90;;;;;;;;;;4463117;28;20043;-72
2022/09/04 06:52:23;;;;;;;1.15;1.00;;;;;;;;;;4484191;28;20097;-72
2022/09/04 06:55:09;;;;;;;1.50;1.10;;;;;;;;;;4449566;28;20786;-71
2022/09/04 06:57:40;;;;;;;1.20;1.10;;;;;;;;;;4451204;28;20047;-73
2022/09/04 07:00:05;;;;;;;1.02;0.93;;;;;;;;;;4484625;28;20041;-72
2022/09/04 07:02:16;;;;;;;1.52;1.10;;;;;;;;;;4487455;28;20093;-70
2022/09/04 07:05:04;;;;;;;1.20;1.10;;;;;;;;;;4487272;28;20491;-72
2022/09/04 07:07:46;;;;;;;1.10;1.00;;;;;;;;;;4488602;28;21070;-71
2022/09/04 07:10:02;;;;;;;1.02;0.98;;;;;;;;;;4488463;28;20063;-70
2022/09/04 07:12:29;;;;;;;1.90;1.30;;;;;;;;;;4493926;28;20129;-70
2022/09/04 07:15:11;;;;;;;1.10;1.00;;;;;;;;;;4487467;28;20042;-70
2022/09/04 07:17:36;;;;;;;1.20;1.10;;;;;;;;;;4488641;28;20081;-71
2022/09/04 07:20:08;;;;;;;1.10;1.00;;;;;;;;;;4488688;28;20134;-70
2022/09/04 07:22:40;;;;;;;1.17;1.08;;;;;;;;;;4489396;28;20079;-71
2022/09/04 07:25:25;;;;;;;1.20;1.10;;;;;;;;;;4487446;28;20069;-70
2022/09/04 07:28:06;;;;;;;1.10;1.00;;;;;;;;;;4485997;28;20144;-77
2022/09/04 07:30:18;;;;;;;1.52;1.25;;;;;;;;;;4490740;28;20118;-68
2022/09/04 07:33:06;;;;;;;1.10;1.00;;;;;;;;;;4489684;28;20062;-72
2022/09/04 07:35:21;;;;;;;1.15;1.08;;;;;;;;;;4419311;28;20044;-70
2022/09/04 07:37:57;;;;;;;1.50;1.27;;;;;;;;;;4469825;28;20055;-73
2022/09/04 07:40:14;;;;;;;1.10;1.00;;;;;;;;;;4487382;28;20030;-72
2022/09/04 07:42:33;;;;;;;1.10;1.00;;;;;;;;;;4489289;28;20043;-67
2022/09/04 07:44:49;;;;;;;2.85;1.02;;;;;;;;;;4486295;28;20058;-72
2022/09/04 07:47:18;;;;;;;1.20;1.10;;;;;;;;;;4487099;28;20039;-68
2022/09/04 07:49:34;;;;;;;1.40;1.30;;;;;;;;;;4487809;28;20092;-68
2022/09/04 07:51:53;;;;;;;1.10;1.00;;;;;;;;;;4487873;28;20042;-67
2022/09/04 07:54:39;;;;;;;2.15;1.23;;;;;;;;;;4488203;28;20034;-72
2022/09/04 07:57:20;;;;;;;1.30;1.20;;;;;;;;;;4457242;28;20101;-72
2022/09/04 07:59:50;;;;;;;1.23;1.05;;;;;;;;;;4502463;28;20034;-72
2022/09/04 08:02:07;;;;;;;1.50;1.08;;;;;;;;;;4487459;28;20745;-72
2022/09/04 08:05:23;;;;;;;1.23;1.13;;;;;;;;;;4486787;28;20038;-72
2022/09/04 08:07:33;;;;;;;1.33;1.23;;;;;;;;;;4436484;28;20054;-72
2022/09/04 08:10:06;;;;;;;1.30;1.20;;;;;;;;;;4481793;28;20050;-73
2022/09/04 08:12:38;;;;;;;1.27;1.17;;;;;;;;;;4476270;28;20225;-73
2022/09/04 08:15:01;;;;;;;1.75;1.30;;;;;;;;;;4492311;28;20656;-74
2022/09/04 08:17:24;;;;;;;1.40;1.27;;;;;;;;;;4487160;28;20108;-74
2022/09/04 08:19:40;;;;;;;1.48;1.20;;;;;;;;;;4487599;28;20741;-74
2022/09/04 08:21:51;;;;;;;;;;;;;;;;;;4490768;28;20034;-74
2022/09/04 08:24:11;;;;;;;2.17;1.20;;;;;;;;;;4488264;28;19922;-75
2022/09/04 08:26:34;;;;;;;1.60;1.40;;;;;;;;;;4488141;28;20623;-68
2022/09/04 08:29:03;;;;;;;1.25;1.10;;;;;;;;;;4488076;28;20049;-72
2022/09/04 08:31:30;;;;;;;1.75;1.30;;;;;;;;;;4487546;28;20048;-72
2022/09/04 08:33:54;;;;;;;;;;;;;;;;;;4487405;28;20034;-73
2022/09/04 08:36:22;;;;;;;1.50;1.38;;;;;;;;;;4485333;28;19922;-72
2022/09/04 08:38:39;;;;;;;1.70;1.20;;;;;;;;;;4487774;28;20045;-72
2022/09/04 08:41:08;;;;;;;;;;;;;;;;;;4489330;28;20045;-72
2022/09/04 08:43:56;;;;;;;1.33;1.23;;;;;;;;;;4487254;28;19924;-72
2022/09/04 08:46:34;;;;;;;2.20;1.27;;;;;;;;;;4487208;28;20035;-72
2022/09/04 08:49:09;;;;;;;;;;;;;;;;;;4501982;28;20252;-71
2022/09/04 08:51:55;;;;;;;1.70;1.40;;;;;;;;;;4439206;28;19922;-72
2022/09/04 08:54:15;;;;;;;1.60;1.30;;;;;;;;;;4473983;28;20039;-71
2022/09/04 08:56:58;;;;;;;2.13;1.40;;;;;;;;;;4486116;28;20752;-71
2022/09/04 08:59:33;;;;;;;1.13;1.02;;;;;;;;;;4468335;28;20120;-71
2022/09/04 09:02:04;;;;;;;1.10;1.00;;;;;;;;;;4483964;28;20034;-71
2022/09/04 09:04:53;;;;;;;1.30;1.10;;;;;;;;;;4484776;28;20815;-71
2022/09/04 09:07:24;;;;;;;1.40;1.20;;;;;;;;;;4486503;28;20905;-71
2022/09/04 09:09:58;;;;;;;1.20;1.10;;;;;;;;;;4486225;28;20587;-71
2022/09/04 09:12:15;;;;;;;1.30;1.20;;;;;;;;;;4487810;28;20053;-70
2022/09/04 09:14:37;;;;;;;1.23;1.13;;;;;;;;;;4484904;28;20029;-69
2022/09/04 09:16:50;;;;;;;1.38;1.10;;;;;;;;;;4500856;28;20042;-71
2022/09/04 09:19:36;;;;;;;1.42;1.10;;;;;;;;;;4485495;28;20041;-71
2022/09/04 09:22:07;;;;;;;0.95;0.95;;;;;;;;;;4490850;28;20088;-71
2022/09/04 09:24:48;;;;;;;1.10;1.00;;;;;;;;;;4486628;28;20041;-71
2022/09/04 09:27:07;;;;;;;1.13;1.00;;;;;;;;;;4486325;28;20109;-71
2022/09/04 09:29:45;;;;;;;1.30;1.20;;;;;;;;;;4488126;28;20038;-70
2022/09/04 09:32:30;;;;;;;1.55;1.00;;;;;;;;;;4488097;28;20093;-71
2022/09/04 09:34:53;;;;;;;1.40;1.00;;;;;;;;;;4486800;28;20081;-71
2022/09/04 09:37:19;;;;;;;1.13;1.02;;;;;;;;;;4486171;28;20832;-71
2022/09/04 09:40:12;;;;;;;1.23;1.10;;;;;;;;;;4484540;28;20657;-70
2022/09/04 09:42:41;;;;;;;1.58;1.27;;;;;;;;;;4448086;28;20181;-71
2022/09/04 09:45:10;;;;;;;1.60;1.00;;;;;;;;;;4485984;28;20042;-72
2022/09/04 09:47:55;;;;;;;1.48;1.05;;;;;;;;;;4487322;28;20043;-71
2022/09/04 09:50:43;;;;;;;1.35;1.13;;;;;;;;;;4485733;28;20046;-72
2022/09/04 09:53:27;;;;;;;1.00;1.00;;;;;;;;;;4484125;28;21193;-71
2022/09/04 09:55:56;;;;;;;1.17;1.08;;;;;;;;;;4481356;28;20042;-72
2022/09/04 09:58:29;;;;;;;1.20;1.10;;;;;;;;;;4489386;28;20077;-71
2022/09/04 10:00:59;;;;;;;1.65;0.90;;;;;;;;;;4483267;28;20404;-71
2022/09/04 10:03:38;;;;;;;1.08;0.98;;;;;;;;;;4487867;28;20595;-70
2022/09/04 10:06:27;;;;;;;1.90;1.23;;;;;;;;;;4484181;28;20624;-72
2022/09/04 10:09:33;;;;;;;1.30;1.13;;;;;;;;;;4485906;28;20036;-70
2022/09/04 10:11:43;;;;;;;1.30;0.93;;;;;;;;;;4450037;28;20587;-72
2022/09/04 10:14:11;;;;;;;1.40;1.10;;;;;;;;;;4473386;28;20119;-69
2022/09/04 10:16:21;;;;;;;0.93;0.90;;;;;;;;;;4485384;28;20113;-68
2022/09/04 10:19:04;;;;;;;1.20;1.00;;;;;;;;;;4485040;28;20062;-70
2022/09/04 10:21:53;;;;;;;1.00;0.90;;;;;;;;;;4454148;28;20049;-69
2022/09/04 10:24:22;;;;;;;1.10;1.00;;;;;;;;;;4486793;28;21323;-67
2022/09/04 10:26:54;;;;;;;1.10;1.00;;;;;;;;;;4486603;28;20034;-69
2022/09/04 10:29:25;;;;;;;1.60;1.20;;;;;;;;;;4487602;28;20125;-69
2022/09/04 10:31:46;;;;;;;1.40;1.20;;;;;;;;;;4486517;28;20038;-69
2022/09/04 10:34:13;;;;;;;1.20;1.10;;;;;;;;;;4487786;28;20034;-69
2022/09/04 10:36:33;;;;;;;1.90;1.10;;;;;;;;;;4484912;28;20043;-69
2022/09/04 10:41:55;;;;;;;1.10;1.00;;;;;;;;;;4488256;28;20614;-70
2022/09/04 10:44:16;;;;;;;;;;;;;;;;;;4460860;28;20280;-69
2022/09/04 10:46:33;;;;;;;1.40;1.15;;;;;;;;;;4484064;28;19922;-69
2022/09/04 10:49:05;;;;;;;1.20;1.02;;;;;;;;;;4485208;28;20038;-70
2022/09/04 10:51:34;;;;;;;1.15;1.05;;;;;;;;;;4484637;28;20201;-69
2022/09/04 10:53:56;;;;;;;1.50;1.05;;;;;;;;;;4484442;28;20046;-70
2022/09/04 10:56:16;;;;;;;1.20;1.10;;;;;;;;;;4483897;28;20062;-70
2022/09/04 10:58:38;;;;;;;1.45;0.90;;;;;;;;;;4486630;28;20026;-69
2022/09/04 11:01:12;;;;;;;1.50;1.20;;;;;;;;;;4483356;28;20590;-69
2022/09/04 11:04:01;;;;;;;1.13;1.02;;;;;;;;;;4487965;28;20471;-70
2022/09/04 11:06:29;;;;;;;1.25;1.13;;;;;;;;;;4463769;28;20230;-69
2022/09/04 11:09:04;;;;;;;1.08;0.98;;;;;;;;;;4486201;28;20042;-69
2022/09/04 11:11:30;;;;;;;1.10;1.00;;;;;;;;;;4485024;28;20204;-70
2022/09/04 11:13:47;;;;;;;2.10;1.25;;;;;;;;;;4483761;28;20043;-70
2022/09/04 11:16:08;;;;;;;;;;;;;;;;;;4483621;28;20120;-68
2022/09/04 11:18:45;;;;;;;1.38;0.95;;;;;;;;;;4481202;28;19969;-69
2022/09/04 11:21:02;;;;;;;1.30;1.20;;;;;;;;;;4483244;28;20149;-69
2022/09/04 11:23:43;;;;;;;1.35;1.10;;;;;;;;;;4487040;28;20199;-70
2022/09/04 11:26:04;;;;;;;1.20;1.10;;;;;;;;;;4485698;28;20039;-71
2022/09/04 11:28:39;;;;;;;1.20;1.00;;;;;;;;;;4483643;28;20130;-70
2022/09/04 11:31:03;;;;;;;1.70;1.10;;;;;;;;;;4485372;28;20042;-69
2022/09/04 11:33:36;;;;;;;1.10;1.00;;;;;;;;;;4485795;28;20041;-71
2022/09/04 11:36:11;;;;;;;0.93;0.93;;;;;;;;;;4499982;28;20099;-72
2022/09/04 11:38:56;;;;;;;1.10;1.00;;;;;;;;;;4497647;28;20118;-70
2022/09/04 11:41:38;;;;;;;1.20;1.10;;;;;;;;;;4483650;28;20042;-70
2022/09/04 11:44:38;;;;;;;1.10;1.00;;;;;;;;;;4441927;28;20051;-71
2022/09/04 11:47:15;;;;;;;1.42;1.10;;;;;;;;;;4416290;28;20143;-69
2022/09/04 11:49:40;;;;;;;1.42;1.08;;;;;;;;;;4482697;28;20704;-71
2022/09/04 11:52:03;;;;;;;1.17;1.08;;;;;;;;;;4488028;28;20042;-70
2022/09/04 11:54:34;;;;;;;1.30;1.08;;;;;;;;;;4488087;28;20670;-70
2022/09/04 11:57:15;;;;;;;1.17;1.08;;;;;;;;;;4488035;28;20042;-70
2022/09/04 12:00:09;;;;;;;1.50;1.10;;;;;;;;;;4487094;28;20631;-69
2022/09/04 12:02:37;;;;;;;1.23;1.00;;;;;;;;;;4453641;28;20635;-69
2022/09/04 12:05:01;;;;;;;1.55;1.20;;;;;;;;;;4435918;28;20043;-68
2022/09/04 12:07:21;;;;;;;1.10;0.90;;;;;;;;;;4436719;28;20052;-67
2022/09/04 12:09:50;;;;;;;1.17;1.08;;;;;;;;;;4454459;28;20133;-69
2022/09/04 12:12:23;;;;;;;0.90;0.90;;;;;;;;;;4452304;28;20043;-69
2022/09/04 12:15:01;;;;;;;1.33;0.98;;;;;;;;;;4452356;28;20054;-69
2022/09/04 12:17:35;;;;;;;1.20;1.10;;;;;;;;;;4452955;28;20047;-69
2022/09/04 12:20:10;;;;;;;1.10;1.00;;;;;;;;;;4454599;28;20050;-69
2022/09/04 12:22:56;;;;;;;1.02;0.93;;;;;;;;;;4453867;28;20081;-70
2022/09/04 12:25:09;;;;;;;1.30;1.10;;;;;;;;;;4432080;28;20038;-69
2022/09/04 12:27:32;;;;;;;1.15;1.00;;;;;;;;;;4452912;28;20146;-69
2022/09/04 12:29:52;;;;;;;1.10;1.00;;;;;;;;;;4450679;28;20771;-69
2022/09/04 12:32:17;;;;;;;1.42;1.02;;;;;;;;;;4452990;28;20047;-68
2022/09/04 12:34:59;;;;;;;1.10;1.00;;;;;;;;;;4488045;28;20627;-70
2022/09/04 12:37:33;;;;;;;1.10;1.00;;;;;;;;;;4488309;28;20050;-69
2022/09/04 12:40:12;;;;;;;1.25;1.00;;;;;;;;;;4473833;28;20053;-70
2022/09/04 12:42:33;;;;;;;1.08;0.98;;;;;;;;;;4485591;28;20766;-71
2022/09/04 12:44:46;;;;;;;1.20;1.10;;;;;;;;;;4485476;28;20046;-71
2022/09/04 12:47:18;;;;;;;1.30;1.20;;;;;;;;;;4500280;28;20129;-69
2022/09/04 12:49:52;;;;;;;1.08;1.02;;;;;;;;;;4485018;28;20034;-70
2022/09/04 12:52:17;;;;;;;1.10;1.00;;;;;;;;;;4492057;28;20053;-68
2022/09/04 12:55:03;;;;;;;1.10;1.00;;;;;;;;;;4487181;28;20606;-69
2022/09/04 12:57:32;;;;;;;1.23;1.10;;;;;;;;;;4485745;28;20097;-69
2022/09/04 12:59:57;;;;;;;1.20;1.10;;;;;;;;;;4486286;28;21050;-68
2022/09/04 13:02:34;;;;;;;1.20;1.10;;;;;;;;;;4488594;28;20601;-69
2022/09/04 13:05:09;;;;;;;2.35;1.20;;;;;;;;;;4485852;28;20708;-69
2022/09/04 13:07:23;;;;;;;3.10;1.38;;;;;;;;;;4487536;28;20550;-69
2022/09/04 13:09:36;;;;;;;2.50;1.10;;;;;;;;;;4485544;28;20034;-68
2022/09/04 13:12:05;;;;;;;1.80;0.95;;;;;;;;;;4485878;28;20088;-68
2022/09/04 13:15:01;;;;;;;1.88;1.17;;;;;;;;;;4486157;28;20035;-68
2022/09/04 13:17:28;;;;;;;2.10;1.10;;;;;;;;;;4465366;28;20490;-68
2022/09/04 13:19:54;;;;;;;2.28;1.20;;;;;;;;;;4486565;28;20033;-68
2022/09/04 13:22:32;;;;;;;2.20;1.10;;;;;;;;;;4486321;28;20846;-68
2022/09/04 13:24:50;;;;;;;1.85;1.17;;;;;;;;;;4500468;28;20077;-67
2022/09/04 13:27:28;;;;;;;2.63;1.17;;;;;;;;;;4486339;28;21199;-69
2022/09/04 13:29:53;;;;;;;2.65;1.02;;;;;;;;;;4485722;28;20038;-68
2022/09/04 13:32:13;;;;;;;1.70;1.05;;;;;;;;;;4483966;28;20046;-68
2022/09/04 13:34:38;;;;;;;1.98;1.10;;;;;;;;;;4486935;28;20064;-68
2022/09/04 13:37:09;;;;;;;2.50;1.17;;;;;;;;;;4502470;28;20030;-68
2022/09/04 13:39:25;;;;;;;2.95;1.10;;;;;;;;;;4487902;28;20031;-68
2022/09/04 13:41:55;;;;;;;1.40;0.95;;;;;;;;;;4486355;28;20034;-68
2022/09/04 13:44:42;;;;;;;2.88;1.20;;;;;;;;;;4500790;28;20038;-68
2022/09/04 13:47:02;;;;;;;3.47;1.17;;;;;;;;;;4464373;28;20042;-68
2022/09/04 13:49:15;;;;;;;3.05;1.13;;;;;;;;;;4485256;28;20128;-68
2022/09/04 13:51:39;;;;;;;1.48;1.00;;;;;;;;;;4488046;28;20057;-68
2022/09/04 13:53:56;;;;;;;2.75;1.05;;;;;;;;;;4485351;28;20112;-68
2022/09/04 13:56:08;;;;;;;;;;;;;;;;;;4501742;28;20128;-68
2022/09/04 13:58:22;;;;;;;2.97;1.23;;;;;;;;;;4485255;28;19922;-68
2022/09/04 14:00:33;;;;;;;3.42;1.50;;;;;;;;;;4485981;28;20038;-68
2022/09/04 14:02:46;;;;;;;1.73;0.90;;;;;;;;;;4485212;28;20035;-68
2022/09/04 14:05:03;;;;;;;2.17;1.10;;;;;;;;;;4486938;28;20030;-68
2022/09/04 14:07:28;;;;;;;5.30;1.00;;;;;;;;;;4483223;28;20045;-67
2022/09/04 14:09:44;;;;;;;1.15;0.80;;;;;;;;;;4485719;28;20028;-68
2022/09/04 14:12:07;;;;;;;1.85;1.00;;;;;;;;;;4484636;28;20038;-67
2022/09/04 14:14:40;;;;;;;1.98;0.98;;;;;;;;;;4489146;28;20136;-68
2022/09/04 14:16:54;;;;;;;1.73;0.88;;;;;;;;;;4487668;28;20694;-68
2022/09/04 14:19:23;;;;;;;1.15;0.80;;;;;;;;;;4486081;28;20572;-68
2022/09/04 14:21:52;;;;;;;1.95;1.20;;;;;;;;;;4485364;28;20590;-68
2022/09/04 14:24:33;;;;;;;1.85;1.08;;;;;;;;;;4483845;28;20050;-69
2022/09/04 14:27:17;;;;;;;1.30;0.80;;;;;;;;;;4488109;28;20038;-68
2022/09/04 14:29:37;;;;;;;2.35;1.10;;;;;;;;;;4484215;28;20117;-68
2022/09/04 14:32:09;;;;;;;1.70;0.93;;;;;;;;;;4486115;28;20039;-68
2022/09/04 14:34:36;;;;;;;1.58;0.90;;;;;;;;;;4482625;28;21088;-69
2022/09/04 14:36:55;;;;;;;1.48;1.00;;;;;;;;;;4485950;28;20081;-69
2022/09/04 14:39:15;;;;;;;1.40;1.00;;;;;;;;;;4485482;28;20038;-69
2022/09/04 14:41:50;;;;;;;2.75;1.10;;;;;;;;;;4484066;28;20034;-69
2022/09/04 14:44:48;;;;;;;1.77;0.90;;;;;;;;;;4486329;28;20046;-68
2022/09/04 14:47:31;;;;;;;1.60;1.00;;;;;;;;;;4475659;28;20070;-69
2022/09/04 14:49:45;;;;;;;1.20;0.80;;;;;;;;;;4452727;28;20158;-68
2022/09/04 14:52:18;;;;;;;1.40;0.80;;;;;;;;;;4466060;28;21436;-69
2022/09/04 14:54:32;;;;;;;1.85;0.80;;;;;;;;;;4484936;28;20800;-69
2022/09/04 14:56:57;;;;;;;1.38;1.00;;;;;;;;;;4483591;28;20608;-69
2022/09/04 14:59:25;;;;;;;1.10;0.88;;;;;;;;;;4487649;28;20488;-69